Terminal Aerodrome Forecast
Issued by NWS Charleston, WV

Current Version | Previous Version | Graphics & Text | Print | Product List | Glossary On
Versions: 1 2 3 4 5 6 7 8 9 10 11 12 13 14 15 16 17 18 19 20 21 22 23 24 25 26 27 28 29 30 31
000
FTUS41 KRLX 261700 AAC
TAFBKW
TAF AMD
KBKW 261703Z 2617/2712 35004KT 1/4SM FG OVC002
     FM261800 34004KT 2SM BR OVC004
     FM261900 34004KT 5SM BR OVC008
     FM262000 32005KT P6SM BKN015
     FM262100 33007KT P6SM SCT025
     FM262200 33008KT P6SM BKN035=

USA.gov is the U.S. government's official web portal to all federal, state and local government web resources and services.